createdAt,value
2019-03-13T00:02:39.331Z,6.15
2019-03-13T00:05:08.538Z,5.83
2019-03-13T00:07:36.493Z,6.90
2019-03-13T00:10:04.437Z,6.53
2019-03-13T00:12:32.405Z,6.15
2019-03-13T00:15:08.042Z,6.40
2019-03-13T00:17:36.098Z,7.25
2019-03-13T00:20:04.063Z,6.80
2019-03-13T00:22:33.022Z,6.40
2019-03-13T00:25:00.998Z,8.18
2019-03-13T00:27:28.988Z,7.20
2019-03-13T00:29:58.268Z,7.20
2019-03-13T00:32:26.362Z,7.58
2019-03-13T00:34:54.308Z,6.60
2019-03-13T00:37:22.373Z,7.37
2019-03-13T00:39:51.192Z,7.75
2019-03-13T00:42:19.274Z,6.78
2019-03-13T00:44:47.266Z,6.75
2019-03-13T00:47:15.386Z,6.45
2019-03-13T00:49:43.398Z,6.75
2019-03-13T00:52:11.378Z,6.87
2019-03-13T00:54:39.283Z,7.37
2019-03-13T00:57:07.264Z,6.60
2019-03-13T00:59:35.228Z,6.25
2019-03-13T01:02:22.006Z,5.70
2019-03-13T01:04:58.961Z,5.97
2019-03-13T01:07:27.045Z,6.75
2019-03-13T01:09:55.074Z,7.20
2019-03-13T01:12:23.055Z,6.45
2019-03-13T01:14:51.257Z,6.15
2019-03-13T01:17:20.191Z,6.22
2019-03-13T01:19:48.250Z,5.45
2019-03-13T01:22:16.338Z,6.33
2019-03-13T01:24:44.262Z,7.15
2019-03-13T01:27:12.293Z,5.80
2019-03-13T01:29:40.287Z,6.53
2019-03-13T01:32:26.153Z,5.00
2019-03-13T01:35:21.870Z,6.10
2019-03-13T01:37:49.799Z,4.95
2019-03-13T01:40:17.731Z,5.25
2019-03-13T01:42:45.732Z,5.70
2019-03-13T01:45:13.850Z,5.37
2019-03-13T01:47:41.964Z,5.45
2019-03-13T01:50:09.918Z,6.40
2019-03-13T01:52:37.893Z,5.65
2019-03-13T01:55:06.162Z,6.20
2019-03-13T01:57:34.052Z,5.92
2019-03-13T02:00:02.034Z,5.92
2019-03-13T02:02:30.010Z,5.47
2019-03-13T02:04:57.959Z,6.25
2019-03-13T02:07:26.091Z,5.15
2019-03-13T02:09:54.167Z,5.85
2019-03-13T02:12:22.257Z,5.70
2019-03-13T02:14:50.388Z,5.67
2019-03-13T02:17:19.404Z,6.65
2019-03-13T02:19:49.721Z,5.22
2019-03-13T02:22:23.280Z,5.33
2019-03-13T02:24:54.468Z,6.03
2019-03-13T02:27:22.365Z,5.03
2019-03-13T02:29:50.563Z,6.10
2019-03-13T02:32:18.708Z,6.20
2019-03-13T02:34:46.751Z,6.28
2019-03-13T02:37:14.686Z,5.47
2019-03-13T02:39:42.774Z,6.00
2019-03-13T02:42:11.603Z,6.95
2019-03-13T02:44:39.537Z,6.80
2019-03-13T02:47:07.475Z,6.50
2019-03-13T02:49:35.836Z,7.12
2019-03-13T02:52:06.234Z,7.33
2019-03-13T02:54:34.228Z,6.70
2019-03-13T02:57:02.160Z,6.95
2019-03-13T02:59:31.028Z,7.62
2019-03-13T03:02:20.880Z,8.85
2019-03-13T03:04:48.952Z,6.22
2019-03-13T03:07:16.887Z,6.83
2019-03-13T03:09:44.817Z,6.15
2019-03-13T03:12:13.727Z,5.67
2019-03-13T03:14:41.747Z,6.72
2019-03-13T03:17:15.726Z,6.15
2019-03-13T03:19:44.064Z,5.40
2019-03-13T03:22:12.017Z,5.45
2019-03-13T03:24:41.897Z,8.15
2019-03-13T03:27:09.845Z,6.05
2019-03-13T03:29:39.086Z,6.20
2019-03-13T03:32:07.458Z,6.35
2019-03-13T03:34:35.781Z,6.45
2019-03-13T03:37:09.499Z,6.10
2019-03-13T03:39:37.490Z,6.97
2019-03-13T03:42:05.377Z,7.15
2019-03-13T03:44:33.287Z,6.65
2019-03-13T03:47:02.006Z,7.30
2019-03-13T03:49:30.081Z,7.03
2019-03-13T03:51:58.070Z,8.05
2019-03-13T03:54:32.124Z,7.42
2019-03-13T03:57:00.615Z,7.87
2019-03-13T03:59:28.580Z,7.60
2019-03-13T04:01:56.534Z,10.13
2019-03-13T04:04:24.497Z,11.78
2019-03-13T04:07:01.428Z,14.07
2019-03-13T04:09:29.606Z,13.08
2019-03-13T04:11:57.682Z,12.60
2019-03-13T04:14:25.732Z,11.83
2019-03-13T04:16:55.578Z,12.43
2019-03-13T04:19:23.500Z,12.70
2019-03-13T04:21:51.519Z,15.60
2019-03-13T04:24:19.442Z,14.80
2019-03-13T04:26:47.467Z,14.03
2019-03-13T04:29:15.433Z,13.18
2019-03-13T04:31:43.454Z,11.40
2019-03-13T04:34:11.490Z,11.63
2019-03-13T04:36:39.447Z,11.57
2019-03-13T04:39:10.797Z,11.85
2019-03-13T04:41:38.758Z,13.48
2019-03-13T04:44:06.755Z,11.48
2019-03-13T04:46:34.717Z,12.25
2019-03-13T04:49:02.672Z,12.55
2019-03-13T04:51:30.773Z,12.40
2019-03-13T04:53:58.954Z,11.38
2019-03-13T04:56:26.876Z,13.13
2019-03-13T04:58:54.831Z,13.10
2019-03-13T05:01:27.439Z,12.55
2019-03-13T05:03:55.478Z,13.85
2019-03-13T05:06:23.434Z,12.58
2019-03-13T05:08:51.369Z,12.45
2019-03-13T05:11:19.545Z,10.82
2019-03-13T05:13:47.645Z,11.25
2019-03-13T05:16:15.617Z,12.13
2019-03-13T05:18:43.544Z,10.60
2019-03-13T05:21:11.471Z,11.30
2019-03-13T05:23:39.455Z,11.30
2019-03-13T05:26:07.395Z,10.75
2019-03-13T05:28:35.438Z,13.68
2019-03-13T05:31:03.826Z,14.20
2019-03-13T05:33:31.800Z,14.83
2019-03-13T05:35:59.771Z,17.10
2019-03-13T05:38:27.704Z,18.12
2019-03-13T05:40:55.644Z,17.05
2019-03-13T05:43:23.774Z,17.55
2019-03-13T05:45:51.970Z,18.65
2019-03-13T05:48:19.964Z,16.42
2019-03-13T05:50:47.922Z,18.67
2019-03-13T05:53:15.877Z,16.52
2019-03-13T05:55:44.036Z,17.48
2019-03-13T05:58:12.380Z,18.40
2019-03-13T06:00:40.332Z,18.12
2019-03-13T06:03:08.311Z,17.35
2019-03-13T06:05:36.301Z,17.12
2019-03-13T06:08:04.239Z,15.85
2019-03-13T06:10:32.208Z,16.05
2019-03-13T06:13:00.459Z,16.00
2019-03-13T06:15:28.388Z,15.28
2019-03-13T06:17:56.715Z,13.95
2019-03-13T06:20:24.739Z,15.32
2019-03-13T06:22:52.687Z,15.03
2019-03-13T06:25:20.795Z,16.25
2019-03-13T06:27:48.785Z,15.72
2019-03-13T06:30:17.432Z,14.85
2019-03-13T06:32:45.466Z,14.13
2019-03-13T06:35:13.976Z,15.13
2019-03-13T06:37:41.988Z,12.85
2019-03-13T06:40:10.067Z,15.23
2019-03-13T06:42:38.156Z,14.75
2019-03-13T06:45:06.389Z,14.20
2019-03-13T06:47:34.338Z,13.05
2019-03-13T06:50:02.282Z,13.25
2019-03-13T06:52:31.599Z,11.80
2019-03-13T06:54:59.832Z,10.72
2019-03-13T06:57:27.840Z,11.12
2019-03-13T07:00:23.453Z,12.85
2019-03-13T07:03:10.213Z,13.78
2019-03-13T07:06:05.911Z,14.65
2019-03-13T07:08:46.991Z,14.00
2019-03-13T07:11:36.533Z,13.38
2019-03-13T07:14:15.026Z,14.80
2019-03-13T07:17:13.986Z,15.35
2019-03-13T07:20:04.612Z,12.05
2019-03-13T07:22:48.408Z,12.00
2019-03-13T07:25:22.598Z,12.10
2019-03-13T07:28:03.602Z,12.53
2019-03-13T07:30:59.888Z,13.33
2019-03-13T07:33:56.088Z,12.95
2019-03-13T07:36:45.694Z,13.22
2019-03-13T07:39:20.581Z,12.23
2019-03-13T07:42:06.176Z,12.00
2019-03-13T07:45:03.815Z,13.48
2019-03-13T07:47:42.770Z,11.28
2019-03-13T07:50:22.270Z,12.95
2019-03-13T07:53:17.848Z,11.83
2019-03-13T07:56:03.314Z,11.40
2019-03-13T07:58:50.121Z,11.68
2019-03-13T08:01:35.995Z,11.25
2019-03-13T08:04:22.805Z,11.48
2019-03-13T08:07:08.470Z,11.00
2019-03-13T08:09:53.919Z,10.05
2019-03-13T08:12:40.765Z,9.83
2019-03-13T08:15:18.467Z,9.45
2019-03-13T08:18:04.108Z,9.97
2019-03-13T08:20:50.820Z,8.73
2019-03-13T08:23:30.690Z,8.20
2019-03-13T08:26:05.090Z,8.45
2019-03-13T08:29:00.938Z,8.45
2019-03-13T08:31:57.003Z,10.20
2019-03-13T08:34:33.346Z,11.50
2019-03-13T08:37:18.591Z,12.35
2019-03-13T08:40:05.357Z,9.68
2019-03-13T08:43:01.181Z,8.83
2019-03-13T08:45:49.189Z,8.40
2019-03-13T08:48:35.954Z,7.72
2019-03-13T08:51:21.484Z,6.97
2019-03-13T08:54:04.463Z,6.67
2019-03-13T08:56:51.260Z,4.90
2019-03-13T08:59:27.754Z,4.17
2019-03-13T09:02:09.732Z,3.63
2019-03-13T09:05:14.261Z,3.27
2019-03-13T09:07:59.798Z,3.10
2019-03-13T09:10:42.692Z,2.83
2019-03-13T09:13:25.288Z,3.50
2019-03-13T09:16:19.801Z,3.03
2019-03-13T09:19:19.207Z,3.90
2019-03-13T09:21:59.366Z,3.17
2019-03-13T09:24:44.588Z,3.47
2019-03-13T09:27:27.802Z,4.03
2019-03-13T09:30:14.859Z,4.33
2019-03-13T09:33:00.651Z,4.07
2019-03-13T09:35:46.024Z,4.10
2019-03-13T09:38:26.879Z,4.13
2019-03-13T09:41:11.336Z,4.00
2019-03-13T09:43:59.863Z,4.33
2019-03-13T09:46:49.418Z,3.83
2019-03-13T09:49:36.184Z,4.30
2019-03-13T09:52:23.193Z,4.40
2019-03-13T09:55:00.381Z,3.90
2019-03-13T09:57:46.355Z,3.60
2019-03-13T10:00:24.564Z,3.20
2019-03-13T10:03:09.976Z,4.53
2019-03-13T10:05:56.718Z,3.97
2019-03-13T10:08:58.554Z,2.90
2019-03-13T10:11:48.359Z,3.03
2019-03-13T10:14:30.940Z,3.03
2019-03-13T10:17:11.453Z,2.30
2019-03-13T10:19:55.856Z,2.50
2019-03-13T10:22:42.597Z,3.57
2019-03-13T10:25:29.399Z,5.10
2019-03-13T10:28:12.654Z,4.60
2019-03-13T10:30:54.284Z,4.77
2019-03-13T10:33:44.252Z,4.03
2019-03-13T10:36:31.160Z,4.73
2019-03-13T10:39:20.792Z,6.10
2019-03-13T10:42:16.934Z,5.33
2019-03-13T10:45:18.708Z,5.30
2019-03-13T10:47:52.119Z,4.93
2019-03-13T10:50:37.660Z,7.30
2019-03-13T10:53:24.560Z,9.40
2019-03-13T10:56:03.454Z,7.20
2019-03-13T10:58:50.885Z,6.50
2019-03-13T11:04:34.113Z,6.77
2019-03-13T11:07:28.550Z,8.00
2019-03-13T11:10:19.978Z,3.90
2019-03-13T11:12:54.133Z,3.65
2019-03-13T11:15:46.811Z,4.43
2019-03-13T11:18:24.957Z,4.17
2019-03-13T11:21:20.795Z,4.33
2019-03-13T11:23:55.154Z,3.83
2019-03-13T11:26:32.857Z,4.67
2019-03-13T11:29:22.370Z,3.85
2019-03-13T11:32:27.451Z,4.30
2019-03-13T11:35:13.101Z,4.45
2019-03-13T11:38:05.805Z,2.60
2019-03-13T11:40:58.543Z,3.30
2019-03-13T11:43:44.222Z,3.53
2019-03-13T11:46:38.111Z,3.08
2019-03-13T11:49:30.875Z,3.80
2019-03-13T11:52:13.149Z,3.40
2019-03-13T11:55:09.003Z,3.50
2019-03-13T11:57:55.846Z,3.45
2019-03-13T12:00:45.066Z,3.22
2019-03-13T12:03:19.611Z,3.47
2019-03-13T12:06:04.032Z,3.40
2019-03-13T14:19:28.914Z,4.47
2019-03-13T14:21:56.878Z,5.35
2019-03-13T14:24:24.853Z,4.92
2019-03-13T14:26:53.994Z,4.37
2019-03-13T14:29:22.952Z,4.42
2019-03-13T14:31:51.947Z,4.50
2019-03-13T14:34:19.895Z,4.80
2019-03-13T14:36:47.902Z,5.85
2019-03-13T14:39:16.349Z,5.58
2019-03-13T14:41:44.378Z,5.40
2019-03-13T14:44:12.397Z,4.40
2019-03-13T14:46:40.472Z,4.45
2019-03-13T14:49:08.438Z,4.28
2019-03-13T14:51:37.322Z,4.50
2019-03-13T14:54:05.257Z,4.55
2019-03-13T14:56:33.197Z,3.70
2019-03-13T14:59:02.374Z,4.90
2019-03-13T15:01:30.332Z,5.35
2019-03-13T15:03:58.349Z,4.40
2019-03-13T15:06:26.251Z,4.45
2019-03-13T15:08:54.166Z,4.00
2019-03-13T15:11:22.120Z,5.10
2019-03-13T15:13:51.083Z,4.75
2019-03-13T15:16:19.017Z,4.28
2019-03-13T15:18:46.961Z,5.10
2019-03-13T15:21:15.190Z,4.40
2019-03-13T15:23:43.161Z,4.78
2019-03-13T15:26:11.321Z,4.35
2019-03-13T15:28:39.230Z,4.55
2019-03-13T15:31:07.163Z,4.28
2019-03-13T15:33:35.197Z,4.30
2019-03-13T15:36:03.137Z,4.20
2019-03-13T15:38:32.347Z,4.10
2019-03-13T15:41:00.341Z,3.33
2019-03-13T15:43:28.292Z,3.30
2019-03-13T15:45:56.523Z,4.08
2019-03-13T15:48:24.474Z,3.50
2019-03-13T15:50:53.549Z,3.80
2019-03-13T15:53:21.532Z,4.10
2019-03-13T15:55:49.591Z,4.20
2019-03-13T15:58:17.513Z,3.65
2019-03-13T16:00:45.501Z,3.58
2019-03-13T16:03:13.378Z,3.27
2019-03-13T16:05:42.440Z,3.75
2019-03-13T16:08:10.332Z,4.62
2019-03-13T16:10:38.290Z,4.22
2019-03-13T16:13:06.666Z,3.85
2019-03-13T16:15:36.036Z,3.60
2019-03-13T16:18:04.000Z,4.10
2019-03-13T16:20:31.984Z,4.25
2019-03-13T16:23:05.753Z,4.85
2019-03-13T16:25:34.309Z,3.72
2019-03-13T16:28:02.518Z,3.37
2019-03-13T16:30:33.822Z,3.27
2019-03-13T16:33:02.011Z,4.40
2019-03-13T16:35:30.025Z,4.80
2019-03-13T16:37:58.944Z,3.60
2019-03-13T16:40:27.086Z,4.15
2019-03-13T16:42:55.182Z,4.15
2019-03-13T16:45:23.314Z,3.62
2019-03-13T16:47:51.402Z,4.33
2019-03-13T16:50:19.342Z,3.35
2019-03-13T16:52:47.280Z,4.58
2019-03-13T16:55:15.219Z,3.90
2019-03-13T16:57:44.359Z,4.00
2019-03-13T17:00:12.381Z,3.40
2019-03-13T17:02:40.307Z,3.25
2019-03-13T17:05:08.172Z,3.80
2019-03-13T17:07:36.454Z,3.58
2019-03-13T17:10:07.092Z,3.55
2019-03-13T17:12:35.058Z,3.20
2019-03-13T17:15:03.644Z,3.75
2019-03-13T17:17:31.562Z,3.55
2019-03-13T17:19:59.501Z,3.20
2019-03-13T17:22:27.476Z,3.15
2019-03-13T17:24:55.547Z,3.75
2019-03-13T17:27:24.967Z,3.62
2019-03-13T17:29:52.948Z,4.22
2019-03-13T17:32:20.978Z,3.40
2019-03-13T17:34:48.909Z,3.42
2019-03-13T17:37:17.827Z,3.95
2019-03-13T17:39:46.713Z,3.27
2019-03-13T17:42:14.600Z,4.03
2019-03-13T17:44:42.546Z,3.77
2019-03-13T17:47:11.426Z,4.30
2019-03-13T17:49:39.550Z,3.40
2019-03-13T17:52:07.688Z,4.92
2019-03-13T17:54:35.673Z,3.85
2019-03-13T17:57:03.595Z,3.83
2019-03-13T17:59:31.544Z,3.92
2019-03-13T18:02:00.077Z,4.35
2019-03-13T18:04:28.128Z,4.45
2019-03-13T18:06:56.197Z,4.58
2019-03-13T18:09:24.264Z,4.78
2019-03-13T18:11:52.867Z,4.92
2019-03-13T18:14:22.079Z,6.58
2019-03-13T18:16:50.134Z,7.42
2019-03-13T18:19:18.135Z,6.50
2019-03-13T18:21:46.048Z,5.42
2019-03-13T18:24:14.090Z,3.52
2019-03-13T18:26:42.034Z,4.00
2019-03-13T18:29:10.315Z,3.80
2019-03-13T18:31:38.296Z,3.90
2019-03-13T18:34:06.235Z,4.35
2019-03-13T18:36:34.204Z,3.65
2019-03-13T18:39:02.165Z,3.45
2019-03-13T18:41:30.124Z,4.05
2019-03-13T18:43:58.262Z,3.33
2019-03-13T18:46:26.476Z,4.40
2019-03-13T18:48:54.402Z,4.35
2019-03-13T18:51:22.532Z,3.87
2019-03-13T18:53:50.451Z,4.10
2019-03-13T18:56:18.330Z,3.60
2019-03-13T18:58:46.628Z,3.60
2019-03-13T19:01:14.755Z,3.62
2019-03-13T19:03:43.723Z,3.67
2019-03-13T19:06:11.679Z,3.80
2019-03-13T19:08:39.602Z,3.27
2019-03-13T19:11:09.338Z,2.80
2019-03-13T19:13:37.407Z,2.95
2019-03-13T19:16:06.043Z,4.00
2019-03-13T19:18:35.311Z,2.98
2019-03-13T19:21:03.199Z,5.30
2019-03-13T19:23:31.137Z,4.97
2019-03-13T19:26:01.389Z,4.05
2019-03-13T19:28:29.204Z,3.27
2019-03-13T19:30:57.405Z,2.60
2019-03-13T19:33:26.313Z,2.70
2019-03-13T19:35:55.560Z,2.70
2019-03-13T19:38:24.199Z,2.33
2019-03-13T19:40:52.160Z,2.52
2019-03-13T19:43:20.171Z,2.77
2019-03-13T19:45:48.196Z,2.60
2019-03-13T19:48:18.417Z,2.77
2019-03-13T19:50:46.051Z,2.25
2019-03-13T19:53:14.023Z,2.20
2019-03-13T19:55:41.944Z,2.67
2019-03-13T19:58:12.923Z,3.05
2019-03-13T20:00:40.900Z,2.30
2019-03-13T20:03:09.442Z,3.20
2019-03-13T20:05:45.341Z,2.30
2019-03-13T20:08:07.272Z,1.95
2019-03-13T20:10:36.193Z,3.02
2019-03-13T20:13:04.287Z,2.05
2019-03-13T20:15:32.465Z,2.10
2019-03-13T20:18:00.391Z,2.80
2019-03-13T20:20:28.318Z,2.67
2019-03-13T20:22:57.160Z,3.87
2019-03-13T20:25:25.538Z,4.65
2019-03-13T20:27:54.767Z,2.30
2019-03-13T20:30:24.449Z,2.50
2019-03-13T20:32:52.449Z,3.20
2019-03-13T20:35:20.785Z,3.95
2019-03-13T20:37:48.750Z,5.20
2019-03-13T20:40:16.717Z,6.35
2019-03-13T20:42:44.635Z,6.15
2019-03-13T20:45:14.612Z,5.10
2019-03-13T20:47:43.401Z,4.17
2019-03-13T20:50:17.384Z,3.70
2019-03-13T20:52:45.877Z,4.75
2019-03-13T20:55:17.215Z,3.25
2019-03-13T20:57:45.191Z,3.08
2019-03-13T21:00:13.099Z,3.22
2019-03-13T21:02:41.107Z,3.95
2019-03-13T21:05:09.119Z,4.87
2019-03-13T21:07:37.063Z,4.25
2019-03-13T21:10:04.979Z,3.98
2019-03-13T21:12:32.922Z,4.03
2019-03-13T21:15:02.540Z,4.67
2019-03-13T21:17:30.514Z,5.55
2019-03-13T21:19:59.110Z,5.37
2019-03-13T21:22:27.235Z,4.65
2019-03-13T21:24:55.197Z,4.45
2019-03-13T21:27:23.163Z,3.90
2019-03-13T21:29:51.052Z,5.83
2019-03-13T21:32:19.004Z,6.00
2019-03-13T21:34:46.904Z,4.92
2019-03-13T21:37:14.820Z,4.95
2019-03-13T21:39:42.954Z,4.55
2019-03-13T21:42:11.222Z,4.65
2019-03-13T21:44:39.148Z,5.20
2019-03-13T21:47:07.248Z,5.37
2019-03-13T21:49:35.503Z,5.22
2019-03-13T21:52:03.406Z,4.65
2019-03-13T21:54:31.336Z,4.20
2019-03-13T21:56:59.572Z,4.72
2019-03-13T21:59:27.542Z,4.20
2019-03-13T22:01:55.526Z,4.10
2019-03-13T22:04:24.805Z,4.92
2019-03-13T22:06:53.286Z,3.87
2019-03-13T22:09:21.338Z,3.40
2019-03-13T22:11:49.441Z,4.00
2019-03-13T22:14:19.417Z,4.65
2019-03-13T22:16:47.330Z,6.10
2019-03-13T22:19:15.322Z,4.45
2019-03-13T22:21:43.251Z,3.90
2019-03-13T22:24:11.621Z,4.00
2019-03-13T22:26:39.502Z,5.62
2019-03-13T22:29:07.849Z,3.55
2019-03-13T22:31:54.803Z,3.47
2019-03-13T22:34:22.913Z,3.27
2019-03-13T22:36:52.104Z,3.25
2019-03-13T22:39:20.088Z,3.10
2019-03-13T22:41:48.300Z,2.77
2019-03-13T22:44:35.304Z,3.72
2019-03-13T22:47:04.392Z,3.08
2019-03-13T22:49:32.341Z,2.75
2019-03-13T22:52:00.248Z,2.98
2019-03-13T22:54:32.016Z,3.62
2019-03-13T22:56:59.931Z,3.65
2019-03-13T22:59:28.931Z,4.30
2019-03-13T23:01:57.143Z,2.60
2019-03-13T23:04:25.213Z,3.45
2019-03-13T23:06:53.125Z,2.10
2019-03-13T23:09:21.039Z,3.05
2019-03-13T23:11:49.038Z,2.62
2019-03-13T23:14:17.615Z,2.72
2019-03-13T23:16:45.717Z,3.08
2019-03-13T23:19:17.249Z,3.58
2019-03-13T23:21:44.840Z,2.45
2019-03-13T23:24:14.955Z,2.60
2019-03-13T23:26:43.127Z,1.85
2019-03-13T23:29:11.052Z,1.60
2019-03-13T23:31:39.074Z,2.25
2019-03-13T23:34:06.967Z,2.10
2019-03-13T23:36:34.916Z,1.30
2019-03-13T23:39:05.917Z,1.92
2019-03-13T23:41:33.962Z,1.77
2019-03-13T23:44:01.991Z,1.87
2019-03-13T23:46:29.973Z,1.40
2019-03-13T23:48:58.240Z,2.10
2019-03-13T23:51:26.119Z,1.95
2019-03-13T23:53:57.266Z,2.50
2019-03-13T23:56:25.258Z,2.58
2019-03-13T23:58:53.249Z,2.10
